createdAt,value
2023-02-23T00:01:35.118Z,100158.56
2023-02-23T00:04:01.906Z,100148.34
2023-02-23T00:06:30.722Z,100147.44
2023-02-23T00:08:57.601Z,100151.38
2023-02-23T00:11:24.819Z,100148.81
2023-02-23T00:13:51.549Z,100148.91
2023-02-23T00:16:22.041Z,100153.44
2023-02-23T00:18:51.764Z,100154.22
2023-02-23T00:21:24.691Z,100156.63
2023-02-23T00:23:59.917Z,100146.78
2023-02-23T00:26:29.428Z,100155.72
2023-02-23T00:28:56.235Z,100151.09
2023-02-23T00:31:24.537Z,100154.59
2023-02-23T00:33:52.373Z,100150.47
2023-02-23T00:36:19.017Z,100156.16
2023-02-23T00:38:45.650Z,100153.91
2023-02-23T00:41:15.029Z,100154.75
2023-02-23T00:43:42.137Z,100144.16
2023-02-23T00:46:08.754Z,100146.78
2023-02-23T00:48:35.881Z,100157.28
2023-02-23T00:51:04.942Z,100154.91
2023-02-23T00:53:32.300Z,100155.25
2023-02-23T00:55:59.201Z,100152.25
2023-02-23T00:58:26.830Z,100156.25
2023-02-23T01:00:54.187Z,100152.25
2023-02-23T01:03:20.860Z,100156.47
2023-02-23T01:05:47.514Z,100155.75
2023-02-23T01:08:14.094Z,100160.84
2023-02-23T01:10:42.134Z,100159.44
2023-02-23T01:13:10.926Z,100157.78
2023-02-23T01:15:42.397Z,100162.31
2023-02-23T01:18:12.598Z,100149.63
2023-02-23T01:20:40.059Z,100156.81
2023-02-23T01:23:09.168Z,100159.41
2023-02-23T01:25:35.810Z,100153.31
2023-02-23T01:28:02.443Z,100160.72
2023-02-23T01:30:29.112Z,100160.78
2023-02-23T01:32:55.739Z,100156.09
2023-02-23T01:35:22.391Z,100157.19
2023-02-23T01:37:49.048Z,100149.94
2023-02-23T01:40:18.753Z,100158.03
2023-02-23T01:42:46.732Z,100151.72
2023-02-23T01:45:27.990Z,100151.28
2023-02-23T01:47:58.514Z,100152.91
2023-02-23T01:50:28.416Z,100148.47
2023-02-23T01:52:55.724Z,100146.59
2023-02-23T01:55:24.411Z,100151.13
2023-02-23T01:57:55.221Z,100146.78
2023-02-23T02:00:24.831Z,100145.97
2023-02-23T02:02:52.111Z,100146.84
2023-02-23T02:05:20.188Z,100142.75
2023-02-23T02:07:49.582Z,100142.59
2023-02-23T02:10:16.677Z,100134.41
2023-02-23T02:12:46.655Z,100143.31
2023-02-23T02:15:14.314Z,100145.22
2023-02-23T02:18:05.114Z,100142.31
2023-02-23T02:20:44.323Z,100137.81
2023-02-23T02:23:16.825Z,100145.75
2023-02-23T02:26:12.188Z,100132.69
2023-02-23T02:28:57.087Z,100145.91
2023-02-23T02:31:35.616Z,100136.22
2023-02-23T02:34:25.443Z,100141.34
2023-02-23T02:37:05.015Z,100139.72
2023-02-23T02:39:46.500Z,100143.72
2023-02-23T02:42:51.359Z,100142.59
2023-02-23T02:45:55.316Z,100146.28
2023-02-23T02:48:37.805Z,100151.91
2023-02-23T02:51:19.122Z,100151.03
2023-02-23T02:54:06.104Z,100149.34
2023-02-23T02:56:36.812Z,100154.63
2023-02-23T02:59:03.599Z,100155.41
2023-02-23T03:01:30.582Z,100154.69
2023-02-23T03:03:59.479Z,100152.34
2023-02-23T03:06:40.373Z,100160.44
2023-02-23T03:09:25.624Z,100155.31
2023-02-23T03:12:22.507Z,100159.16
2023-02-23T03:15:10.068Z,100158.00
2023-02-23T03:18:18.179Z,100160.13
2023-02-23T03:20:54.197Z,100159.00
2023-02-23T03:23:41.973Z,100160.44
2023-02-23T03:26:23.929Z,100161.88
2023-02-23T03:29:16.398Z,100156.47
2023-02-23T03:31:51.487Z,100160.09
2023-02-23T03:34:26.566Z,100164.06
2023-02-23T03:37:06.365Z,100169.22
2023-02-23T03:39:33.579Z,100170.97
2023-02-23T03:42:05.737Z,100171.03
2023-02-23T03:44:42.862Z,100169.78
2023-02-23T03:47:13.067Z,100166.13
2023-02-23T03:49:42.845Z,100174.19
2023-02-23T03:52:16.893Z,100160.47
2023-02-23T03:55:03.246Z,100170.09
2023-02-23T03:57:33.850Z,100163.78
2023-02-23T04:00:05.612Z,100168.69
2023-02-23T04:02:36.105Z,100170.31
2023-02-23T04:05:09.655Z,100174.13
2023-02-23T04:07:39.970Z,100169.66
2023-02-23T04:10:08.920Z,100172.47
2023-02-23T04:13:00.275Z,100167.16
2023-02-23T04:15:34.302Z,100169.78
2023-02-23T04:18:06.825Z,100173.13
2023-02-23T04:20:33.840Z,100163.66
2023-02-23T04:23:00.722Z,100172.09
2023-02-23T04:25:27.393Z,100175.81
2023-02-23T04:27:54.026Z,100169.78
2023-02-23T04:30:20.812Z,100173.94
2023-02-23T04:32:47.658Z,100166.25
2023-02-23T04:35:14.496Z,100167.13
2023-02-23T04:37:41.409Z,100165.22
2023-02-23T04:40:08.847Z,100163.59
2023-02-23T04:42:35.868Z,100170.59
2023-02-23T04:45:02.463Z,100174.66
2023-02-23T04:47:29.098Z,100171.66
2023-02-23T04:49:55.693Z,100167.34
2023-02-23T04:52:22.305Z,100170.75
2023-02-23T04:54:48.990Z,100175.75
2023-02-23T04:57:15.800Z,100179.50
2023-02-23T04:59:42.443Z,100168.25
2023-02-23T05:02:09.103Z,100173.50
2023-02-23T05:04:35.973Z,100172.38
2023-02-23T05:07:03.209Z,100172.59
2023-02-23T05:09:30.714Z,100174.22
2023-02-23T05:11:57.618Z,100180.72
2023-02-23T05:14:24.468Z,100170.56
2023-02-23T05:16:51.051Z,100175.00
2023-02-23T05:19:18.205Z,100178.44
2023-02-23T05:21:45.042Z,100186.50
2023-02-23T05:24:11.773Z,100182.75
2023-02-23T05:26:38.492Z,100186.34
2023-02-23T05:29:05.180Z,100190.56
2023-02-23T05:31:32.020Z,100184.91
2023-02-23T05:33:58.699Z,100184.00
2023-02-23T05:36:25.364Z,100177.31
2023-02-23T05:38:52.015Z,100180.47
2023-02-23T05:41:21.459Z,100187.31
2023-02-23T05:43:49.654Z,100189.16
2023-02-23T05:46:19.775Z,100181.03
2023-02-23T05:48:46.970Z,100187.59
2023-02-23T05:51:15.472Z,100188.66
2023-02-23T05:53:43.266Z,100189.34
2023-02-23T05:56:13.843Z,100190.22
2023-02-23T05:58:40.484Z,100192.09
2023-02-23T06:01:07.114Z,100190.25
2023-02-23T06:03:33.759Z,100193.09
2023-02-23T06:06:00.411Z,100201.69
2023-02-23T06:08:29.263Z,100202.47
2023-02-23T06:10:56.024Z,100203.53
2023-02-23T06:13:22.632Z,100205.22
2023-02-23T06:15:49.306Z,100204.22
2023-02-23T06:18:16.166Z,100211.09
2023-02-23T06:20:42.767Z,100211.31
2023-02-23T06:23:09.403Z,100215.59
2023-02-23T06:25:36.047Z,100219.13
2023-02-23T06:28:02.656Z,100224.16
2023-02-23T06:30:29.371Z,100223.41
2023-02-23T06:32:56.144Z,100226.91
2023-02-23T06:35:22.765Z,100227.75
2023-02-23T06:37:49.429Z,100233.03
2023-02-23T06:40:16.341Z,100232.19
2023-02-23T06:42:42.937Z,100233.97
2023-02-23T06:45:10.276Z,100239.88
2023-02-23T06:47:36.906Z,100245.91
2023-02-23T06:50:03.699Z,100241.81
2023-02-23T06:52:30.361Z,100247.75
2023-02-23T06:54:57.026Z,100243.47
2023-02-23T06:57:23.641Z,100240.84
2023-02-23T06:59:50.612Z,100249.69
2023-02-23T07:02:17.752Z,100246.34
2023-02-23T07:04:44.397Z,100254.09
2023-02-23T07:07:11.487Z,100249.28
2023-02-23T07:09:42.454Z,100257.28
2023-02-23T07:12:10.461Z,100262.66
2023-02-23T07:14:37.204Z,100261.56
2023-02-23T07:17:04.943Z,100255.56
2023-02-23T07:19:32.812Z,100259.53
2023-02-23T07:21:59.489Z,100263.16
2023-02-23T07:24:26.107Z,100264.22
2023-02-23T07:26:52.689Z,100257.94
2023-02-23T07:29:19.368Z,100255.38
2023-02-23T07:31:46.465Z,100257.75
2023-02-23T07:34:13.129Z,100260.50
2023-02-23T07:36:39.757Z,100258.44
2023-02-23T07:39:06.404Z,100272.38
2023-02-23T07:41:33.586Z,100269.22
2023-02-23T07:44:00.406Z,100274.50
2023-02-23T07:46:27.041Z,100270.75
2023-02-23T07:48:53.900Z,100268.91
2023-02-23T07:51:20.989Z,100271.69
2023-02-23T07:53:47.939Z,100263.38
2023-02-23T07:56:14.660Z,100261.06
2023-02-23T07:58:43.747Z,100265.47
2023-02-23T08:01:14.032Z,100274.09
2023-02-23T08:03:40.748Z,100267.22
2023-02-23T08:06:07.480Z,100265.56
2023-02-23T08:08:34.109Z,100267.41
2023-02-23T08:11:02.720Z,100265.72
2023-02-23T08:13:29.781Z,100265.91
2023-02-23T08:15:56.592Z,100271.88
2023-02-23T08:18:23.429Z,100278.69
2023-02-23T08:20:50.114Z,100275.72
2023-02-23T08:23:16.965Z,100281.59
2023-02-23T08:25:44.093Z,100274.63
2023-02-23T08:28:10.787Z,100274.66
2023-02-23T08:30:37.539Z,100284.00
2023-02-23T08:33:04.187Z,100285.13
2023-02-23T08:35:31.003Z,100278.94
2023-02-23T08:37:58.046Z,100279.22
2023-02-23T08:40:24.918Z,100288.00
2023-02-23T08:42:51.581Z,100285.47
2023-02-23T08:45:19.394Z,100289.75
2023-02-23T08:47:46.138Z,100291.03
2023-02-23T08:50:13.855Z,100288.84
2023-02-23T08:52:40.657Z,100298.03
2023-02-23T08:55:07.912Z,100298.63
2023-02-23T08:57:35.319Z,100306.22
2023-02-23T09:00:02.593Z,100301.22
2023-02-23T09:02:29.367Z,100300.69
2023-02-23T09:04:56.019Z,100294.34
2023-02-23T09:07:23.099Z,100301.56
2023-02-23T09:09:57.186Z,100296.19
2023-02-23T09:12:23.874Z,100297.69
2023-02-23T09:14:50.673Z,100303.56
2023-02-23T09:17:18.449Z,100306.16
2023-02-23T09:19:45.062Z,100297.41
2023-02-23T09:22:11.689Z,100301.06
2023-02-23T09:24:38.420Z,100307.16
2023-02-23T09:27:05.893Z,100308.13
2023-02-23T09:29:32.591Z,100302.16
2023-02-23T09:31:59.341Z,100302.34
2023-02-23T09:34:26.041Z,100294.44
2023-02-23T09:36:52.731Z,100304.78
2023-02-23T09:39:26.496Z,100295.81
2023-02-23T09:42:14.564Z,100303.81
2023-02-23T09:45:19.231Z,100312.53
2023-02-23T09:48:20.853Z,100310.69
2023-02-23T09:50:53.314Z,100314.63
2023-02-23T09:53:46.405Z,100309.38
2023-02-23T09:56:27.857Z,100311.44
2023-02-23T09:58:54.508Z,100316.63
2023-02-23T10:01:33.337Z,100311.50
2023-02-23T10:04:11.391Z,100308.25
2023-02-23T10:06:42.535Z,100313.25
2023-02-23T10:09:21.693Z,100314.63
2023-02-23T10:12:11.559Z,100323.66
2023-02-23T10:14:56.979Z,100317.41
2023-02-23T10:17:44.939Z,100313.78
2023-02-23T10:20:11.591Z,100314.31
2023-02-23T10:22:39.762Z,100310.88
2023-02-23T10:25:13.377Z,100306.13
2023-02-23T10:27:44.217Z,100309.63
2023-02-23T10:30:25.052Z,100304.91
2023-02-23T10:33:16.524Z,100294.91
2023-02-23T10:35:44.315Z,100298.94
2023-02-23T10:38:16.215Z,100300.69
2023-02-23T10:40:49.864Z,100294.41
2023-02-23T10:43:16.770Z,100288.94
2023-02-23T10:45:50.613Z,100283.41
2023-02-23T10:48:20.947Z,100287.25
2023-02-23T10:50:50.585Z,100281.50
2023-02-23T10:53:26.661Z,100276.88
2023-02-23T10:56:05.687Z,100279.72
2023-02-23T10:58:40.948Z,100274.13
2023-02-23T11:01:07.701Z,100267.41
2023-02-23T11:03:52.260Z,100268.72
2023-02-23T11:06:48.676Z,100265.63
2023-02-23T11:09:43.371Z,100256.25
2023-02-23T11:12:20.569Z,100256.47
2023-02-23T11:14:50.625Z,100253.78
2023-02-23T11:17:33.478Z,100251.22
2023-02-23T11:20:23.342Z,100252.16
2023-02-23T11:22:50.087Z,100244.00
2023-02-23T11:25:25.606Z,100243.34
2023-02-23T11:27:52.592Z,100244.66
2023-02-23T11:30:24.400Z,100240.34
2023-02-23T11:33:00.313Z,100239.41
2023-02-23T11:35:30.552Z,100238.84
2023-02-23T11:37:57.595Z,100236.13
2023-02-23T11:40:32.884Z,100239.66
2023-02-23T11:43:05.611Z,100237.19
2023-02-23T11:45:45.132Z,100235.56
2023-02-23T11:48:28.269Z,100228.97
2023-02-23T11:50:57.503Z,100231.47
2023-02-23T11:53:30.044Z,100230.25
2023-02-23T11:55:59.746Z,100230.59
2023-02-23T11:58:42.098Z,100224.19
2023-02-23T12:01:18.276Z,100225.38
2023-02-23T12:03:53.425Z,100226.69
2023-02-23T12:06:34.324Z,100219.13
2023-02-23T12:09:29.356Z,100224.19
2023-02-23T12:12:11.410Z,100217.78
2023-02-23T12:14:39.339Z,100210.94
2023-02-23T12:17:34.391Z,100206.88
2023-02-23T12:20:29.385Z,100209.44
2023-02-23T12:23:02.707Z,100207.84
2023-02-23T12:26:04.236Z,100204.38
2023-02-23T12:28:40.611Z,100204.06
2023-02-23T12:31:31.320Z,100208.91
2023-02-23T12:34:02.772Z,100200.53
2023-02-23T12:36:57.234Z,100199.28
2023-02-23T12:39:26.693Z,100187.34
2023-02-23T12:41:58.919Z,100192.31
2023-02-23T12:44:52.630Z,100186.41
2023-02-23T12:47:40.716Z,100185.19
2023-02-23T12:50:28.461Z,100186.25
2023-02-23T12:52:58.774Z,100183.03
2023-02-23T12:55:35.302Z,100183.91
2023-02-23T12:58:29.117Z,100180.91
2023-02-23T13:01:11.087Z,100171.75
2023-02-23T13:04:02.677Z,100169.94
2023-02-23T13:06:38.182Z,100168.59
2023-02-23T13:09:13.668Z,100163.50
2023-02-23T13:11:53.158Z,100167.91
2023-02-23T13:14:41.727Z,100161.50
2023-02-23T13:17:37.024Z,100157.22
2023-02-23T13:20:40.703Z,100153.81
2023-02-23T13:23:38.300Z,100152.25
2023-02-23T13:26:29.739Z,100145.41
2023-02-23T13:29:14.986Z,100145.50
2023-02-23T13:31:42.148Z,100141.69
2023-02-23T13:34:24.754Z,100139.66
2023-02-23T13:36:53.182Z,100138.94
2023-02-23T13:39:40.718Z,100136.56
2023-02-23T13:42:16.422Z,100139.81
2023-02-23T13:45:07.830Z,100139.91
2023-02-23T13:48:06.819Z,100135.91
2023-02-23T13:50:44.022Z,100127.88
2023-02-23T13:53:46.361Z,100126.56
2023-02-23T13:56:23.189Z,100126.34
2023-02-23T13:58:56.238Z,100125.88
2023-02-23T14:01:27.336Z,100120.69
2023-02-23T14:03:57.762Z,100129.94
2023-02-23T14:06:28.060Z,100121.13
2023-02-23T14:09:06.845Z,100123.25
2023-02-23T14:11:44.261Z,100123.03
2023-02-23T14:14:31.414Z,100119.84
2023-02-23T14:17:16.081Z,100119.94
2023-02-23T14:20:13.302Z,100122.34
2023-02-23T14:23:15.173Z,100126.66
2023-02-23T14:26:12.664Z,100123.63
2023-02-23T14:28:42.599Z,100129.44
2023-02-23T14:31:12.329Z,100128.19
2023-02-23T14:33:41.954Z,100124.22
2023-02-23T14:36:23.494Z,100127.00
2023-02-23T14:38:53.227Z,100118.50
2023-02-23T14:41:47.440Z,100118.28
2023-02-23T14:44:31.786Z,100122.25
2023-02-23T14:47:12.189Z,100114.88
2023-02-23T14:49:44.919Z,100116.69
2023-02-23T14:52:21.508Z,100118.13
2023-02-23T14:54:48.517Z,100114.53
2023-02-23T14:57:25.875Z,100104.53
2023-02-23T14:59:56.550Z,100106.75
2023-02-23T15:02:26.298Z,100110.31
2023-02-23T15:04:53.912Z,100106.06
2023-02-23T15:07:38.796Z,100105.81
2023-02-23T15:10:48.062Z,100111.56
2023-02-23T15:13:29.082Z,100103.97
2023-02-23T15:16:01.846Z,100102.97
2023-02-23T15:18:33.318Z,100105.81
2023-02-23T15:21:01.534Z,100105.97
2023-02-23T15:23:34.198Z,100101.03
2023-02-23T15:26:02.177Z,100112.09
2023-02-23T15:28:29.693Z,100104.22
2023-02-23T15:31:00.591Z,100104.84
2023-02-23T15:33:27.577Z,100100.47
2023-02-23T15:36:02.911Z,100100.00
2023-02-23T15:38:59.806Z,100099.94
2023-02-23T15:41:35.692Z,100096.00
2023-02-23T15:44:12.019Z,100095.16
2023-02-23T15:46:39.216Z,100090.56
2023-02-23T15:49:06.497Z,100088.50
2023-02-23T15:51:42.141Z,100090.25
2023-02-23T15:54:22.889Z,100090.22
2023-02-23T15:56:54.832Z,100084.47
2023-02-23T15:59:28.070Z,100088.47
2023-02-23T16:01:54.952Z,100084.94
2023-02-23T16:04:28.024Z,100084.22
2023-02-23T16:07:06.602Z,100088.81
2023-02-23T16:09:33.305Z,100080.16
2023-02-23T16:12:03.792Z,100081.84
2023-02-23T16:15:00.154Z,100083.84
2023-02-23T16:17:32.786Z,100092.50
2023-02-23T16:20:35.127Z,100092.63
2023-02-23T16:23:03.323Z,100092.88
2023-02-23T16:25:31.355Z,100084.06
2023-02-23T16:28:18.645Z,100091.25
2023-02-23T16:30:56.597Z,100096.69
2023-02-23T16:33:25.026Z,100100.94
2023-02-23T16:36:05.932Z,100093.91
2023-02-23T16:38:39.013Z,100095.22
2023-02-23T16:41:19.594Z,100097.66
2023-02-23T16:43:49.293Z,100096.91
2023-02-23T16:46:17.687Z,100093.38
2023-02-23T16:48:44.778Z,100097.91
2023-02-23T16:51:15.844Z,100092.66
2023-02-23T16:53:43.179Z,100098.00
2023-02-23T16:56:16.725Z,100092.78
2023-02-23T16:58:50.244Z,100098.09
2023-02-23T17:01:18.681Z,100098.88
2023-02-23T17:03:52.703Z,100105.56
2023-02-23T17:06:19.969Z,100098.81
2023-02-23T17:08:56.158Z,100103.00
2023-02-23T17:11:24.264Z,100107.41
2023-02-23T17:13:50.948Z,100104.50
2023-02-23T17:16:17.829Z,100099.63
2023-02-23T17:18:44.608Z,100096.63
2023-02-23T17:21:13.416Z,100087.50
2023-02-23T17:23:41.171Z,100099.22
2023-02-23T17:26:09.421Z,100094.72
2023-02-23T17:28:36.281Z,100091.31
2023-02-23T17:31:03.714Z,100085.47
2023-02-23T17:33:30.717Z,100089.03
2023-02-23T17:35:57.332Z,100084.53
2023-02-23T17:38:23.903Z,100077.56
2023-02-23T17:40:50.511Z,100086.03
2023-02-23T17:43:17.137Z,100079.97
2023-02-23T17:45:43.746Z,100087.03
2023-02-23T17:48:10.361Z,100096.63
2023-02-23T17:50:36.977Z,100099.34
2023-02-23T17:53:03.699Z,100095.13
2023-02-23T17:55:30.303Z,100094.78
2023-02-23T17:57:56.943Z,100093.19
2023-02-23T18:00:23.701Z,100090.13
2023-02-23T18:02:50.471Z,100090.97
2023-02-23T18:05:18.593Z,100091.47
2023-02-23T18:07:48.073Z,100084.00
2023-02-23T18:10:15.074Z,100087.41
2023-02-23T18:12:41.787Z,100086.72
2023-02-23T18:15:08.599Z,100081.47
2023-02-23T18:17:35.207Z,100088.41
2023-02-23T18:20:01.860Z,100086.00
2023-02-23T18:22:28.500Z,100083.78
2023-02-23T18:24:57.181Z,100078.38
2023-02-23T18:27:23.934Z,100081.81
2023-02-23T18:29:50.578Z,100085.41
2023-02-23T18:32:17.508Z,100078.34
2023-02-23T18:34:44.221Z,100081.38
2023-02-23T18:37:10.955Z,100082.72
2023-02-23T18:39:37.604Z,100075.00
2023-02-23T18:42:04.971Z,100073.31
2023-02-23T18:44:34.083Z,100077.66
2023-02-23T18:47:01.881Z,100074.03
2023-02-23T18:49:28.516Z,100072.16
2023-02-23T18:51:55.161Z,100072.38
2023-02-23T18:54:21.841Z,100073.31
2023-02-23T18:56:49.151Z,100066.22
2023-02-23T18:59:16.190Z,100069.66
2023-02-23T19:01:43.059Z,100070.28
2023-02-23T19:04:11.173Z,100065.28
2023-02-23T19:06:38.140Z,100069.00
2023-02-23T19:09:05.575Z,100067.34
2023-02-23T19:11:33.948Z,100056.75
2023-02-23T19:14:05.394Z,100053.22
2023-02-23T19:16:33.226Z,100058.47
2023-02-23T19:19:00.950Z,100062.00
2023-02-23T19:21:30.881Z,100060.31
2023-02-23T19:23:58.223Z,100060.31
2023-02-23T19:26:27.558Z,100066.44
2023-02-23T19:28:56.771Z,100058.63
2023-02-23T19:31:24.644Z,100063.75
2023-02-23T19:33:53.522Z,100063.84
2023-02-23T19:36:22.874Z,100060.22
2023-02-23T19:38:49.784Z,100052.53
2023-02-23T19:41:19.664Z,100066.66
2023-02-23T19:43:46.905Z,100053.72
2023-02-23T19:46:16.855Z,100062.16
2023-02-23T19:48:45.628Z,100063.13
2023-02-23T19:51:13.448Z,100065.94
2023-02-23T19:53:40.351Z,100065.16
2023-02-23T19:56:10.629Z,100064.34
2023-02-23T19:58:37.934Z,100061.84
2023-02-23T20:01:07.094Z,100067.19
2023-02-23T20:03:38.224Z,100070.66
2023-02-23T20:06:06.701Z,100062.66
2023-02-23T20:08:33.544Z,100064.44
2023-02-23T20:11:00.604Z,100062.97
2023-02-23T20:13:27.554Z,100055.34
2023-02-23T20:16:05.982Z,100061.66
2023-02-23T20:18:32.988Z,100061.44
2023-02-23T20:20:59.748Z,100056.94
2023-02-23T20:23:26.348Z,100062.25
2023-02-23T20:25:52.985Z,100048.16
2023-02-23T20:28:19.830Z,100052.63
2023-02-23T20:30:47.450Z,100058.81
2023-02-23T20:33:14.292Z,100050.03
2023-02-23T20:35:42.095Z,100051.69
2023-02-23T20:38:08.911Z,100041.16
2023-02-23T20:40:35.924Z,100033.41
2023-02-23T20:43:02.607Z,100041.31
2023-02-23T20:45:29.189Z,100032.28
2023-02-23T20:47:55.824Z,100036.06
2023-02-23T20:50:24.108Z,100033.38
2023-02-23T20:52:50.931Z,100032.38
2023-02-23T20:55:18.414Z,100028.84
2023-02-23T20:57:46.785Z,100033.88
2023-02-23T21:00:16.227Z,100026.91
2023-02-23T21:02:42.930Z,100029.53
2023-02-23T21:05:09.898Z,100030.38
2023-02-23T21:07:36.560Z,100028.75
2023-02-23T21:10:04.035Z,100022.81
2023-02-23T21:12:30.748Z,100024.53
2023-02-23T21:14:57.381Z,100025.50
2023-02-23T21:17:24.217Z,100026.75
2023-02-23T21:19:50.824Z,100026.16
2023-02-23T21:22:17.942Z,100028.41
2023-02-23T21:24:44.619Z,100021.59
2023-02-23T21:27:11.828Z,100016.88
2023-02-23T21:29:43.246Z,100020.66
2023-02-23T21:32:13.014Z,100021.19
2023-02-23T21:34:43.247Z,100020.31
2023-02-23T21:37:09.971Z,100018.59
2023-02-23T21:39:36.608Z,100020.34
2023-02-23T21:42:03.287Z,100025.69
2023-02-23T21:44:30.020Z,100022.16
2023-02-23T21:46:58.168Z,100022.47
2023-02-23T21:49:24.953Z,100019.78
2023-02-23T21:51:52.641Z,100023.81
2023-02-23T21:54:20.161Z,100017.47
2023-02-23T21:56:46.805Z,100012.88
2023-02-23T21:59:13.436Z,100008.97
2023-02-23T22:01:40.495Z,100005.88
2023-02-23T22:04:09.485Z,100004.25
2023-02-23T22:06:42.661Z,100000.66
2023-02-23T22:09:11.024Z,100007.06
2023-02-23T22:11:39.562Z,99995.75
2023-02-23T22:14:06.306Z,99998.97
2023-02-23T22:16:34.899Z,99998.84
2023-02-23T22:19:02.074Z,99992.78
2023-02-23T22:21:29.206Z,99987.88
2023-02-23T22:23:55.843Z,99985.78
2023-02-23T22:26:22.454Z,99975.81
2023-02-23T22:28:49.174Z,99982.50
2023-02-23T22:31:15.955Z,99979.97
2023-02-23T22:33:43.746Z,99981.69
2023-02-23T22:36:13.390Z,99979.00
2023-02-23T22:38:42.867Z,99974.66
2023-02-23T22:41:10.236Z,99980.81
2023-02-23T22:43:37.797Z,99978.53
2023-02-23T22:46:07.411Z,99974.25
2023-02-23T22:48:35.844Z,99969.00
2023-02-23T22:51:03.781Z,99963.66
2023-02-23T22:53:31.443Z,99963.44
2023-02-23T22:55:58.101Z,99953.38
2023-02-23T22:58:25.886Z,99955.28
2023-02-23T23:00:56.189Z,99952.66
2023-02-23T23:03:22.959Z,99953.94
2023-02-23T23:05:49.682Z,99951.06
2023-02-23T23:08:16.316Z,99953.59
2023-02-23T23:10:42.945Z,99948.53
2023-02-23T23:13:09.612Z,99945.31
2023-02-23T23:15:36.238Z,99953.81
2023-02-23T23:18:02.834Z,99951.16
2023-02-23T23:20:29.528Z,99945.97
2023-02-23T23:22:56.112Z,99943.59
2023-02-23T23:25:23.039Z,99942.41
2023-02-23T23:27:51.096Z,99941.72
2023-02-23T23:30:19.085Z,99939.75
2023-02-23T23:32:45.797Z,99930.56
2023-02-23T23:35:12.662Z,99930.47
2023-02-23T23:37:39.449Z,99928.97
2023-02-23T23:40:08.815Z,99926.22
2023-02-23T23:42:35.491Z,99918.94
2023-02-23T23:45:02.108Z,99923.56
2023-02-23T23:47:28.805Z,99911.38
2023-02-23T23:49:55.416Z,99910.84
2023-02-23T23:52:22.037Z,99902.75
2023-02-23T23:54:48.698Z,99905.00
2023-02-23T23:57:15.333Z,99908.56
2023-02-23T23:59:41.995Z,99900.72
